Pocahontas, Missouri
Current Conditions -  °F | °C
As of 1:53 AM on Saturday 29 Nov 2014 (Local Time) from KCGI Reporting Station
Clear Clear  
Wind Chill: 37°   Ceiling: Unl
Heat Index: 42°   Visibility: 10mi
Dew Point: 32°   Wind: 8mph
Humidity: 67%   Direction: 170°S
Pressure: 29.99"   Gusts: NA
Location:  37.5°N, 89.64°W
Report Text: KCGI 290753Z AUTO 17007KT 10SM CLR 06/00 A2999 RMK AO2 SLP156 T00560000 TSNO
Loading
Personal Weather Stations






























Interactive Weather Map New forecast layout! Learn more

10-Day Weather Forecast

Advertisements
Track Severe Weather on mobile